createdAt,value
2022-11-27T00:00:11.908Z,2.900
2022-11-27T00:01:11.471Z,2.799
2022-11-27T00:02:11.794Z,3.099
2022-11-27T00:03:12.097Z,3
2022-11-27T00:05:11.625Z,3.099
2022-11-27T00:06:11.564Z,2.799
2022-11-27T00:07:11.965Z,2.900
2022-11-27T00:08:11.329Z,2.799
2022-11-27T00:09:11.040Z,3.099
2022-11-27T00:10:12.729Z,2.599
2022-11-27T00:11:11.691Z,2.400
2022-11-27T00:12:11.802Z,2.599
2022-11-27T00:13:11.768Z,2.799
2022-11-27T00:14:11.946Z,2.700
2022-11-27T00:15:16.976Z,2.599
2022-11-27T00:16:11.266Z,2.799
2022-11-27T00:18:12.309Z,3.099
2022-11-27T00:19:11.418Z,3.299
2022-11-27T00:20:11.888Z,3
2022-11-27T00:21:12.044Z,3.200
2022-11-27T00:22:12.334Z,3.099
2022-11-27T00:23:11.590Z,3.299
2022-11-27T00:24:11.800Z,3.5
2022-11-27T00:25:12.090Z,3.799
2022-11-27T00:26:12.251Z,4.199
2022-11-27T00:27:12.322Z,3.599
2022-11-27T00:28:11.640Z,3.900
2022-11-27T00:29:11.930Z,3.400
2022-11-27T00:30:12.464Z,3.5
2022-11-27T00:31:11.819Z,3.900
2022-11-27T00:32:11.817Z,3.700
2022-11-27T00:33:12.005Z,3.400
2022-11-27T00:34:11.357Z,3.5
2022-11-27T00:35:12.007Z,3.200
2022-11-27T00:36:12.272Z,3.799
2022-11-27T00:37:12.450Z,3.599
2022-11-27T00:38:12.368Z,3.400
2022-11-27T00:39:12.017Z,4
2022-11-27T00:40:11.756Z,3.400
2022-11-27T00:41:11.954Z,4
2022-11-27T00:42:12.151Z,3.5
2022-11-27T00:43:11.259Z,3.400
2022-11-27T00:45:12.082Z,3.599
2022-11-27T00:46:11.313Z,3.5
2022-11-27T00:47:12.144Z,3.200
2022-11-27T00:48:11.670Z,3.299
2022-11-27T00:49:12.366Z,3.200
2022-11-27T00:51:12.657Z,3.5
2022-11-27T00:52:17.264Z,3.200
2022-11-27T00:53:11.683Z,3.700
2022-11-27T00:54:17.069Z,3.099
2022-11-27T00:55:12.688Z,3.599
2022-11-27T00:56:12.484Z,3.5
2022-11-27T00:57:11.990Z,3.700
2022-11-27T00:58:11.751Z,3.599
2022-11-27T00:59:12.668Z,3.700
2022-11-27T01:00:13.769Z,4.099
2022-11-27T01:01:13.825Z,4.400
2022-11-27T01:02:12.275Z,4.300
2022-11-27T01:03:12.007Z,4
2022-11-27T01:04:11.652Z,4.699
2022-11-27T01:05:12.173Z,6.5
2022-11-27T01:06:11.571Z,5.900
2022-11-27T01:07:12.047Z,4.699
2022-11-27T01:08:11.746Z,5.099
2022-11-27T01:09:12.081Z,5
2022-11-27T01:10:11.895Z,4.599
2022-11-27T01:11:11.602Z,5.699
2022-11-27T01:12:26.316Z,4.800
2022-11-27T01:13:11.792Z,4.900
2022-11-27T01:14:11.426Z,4.800
2022-11-27T01:15:12.343Z,4.599
2022-11-27T01:16:12.524Z,4.900
2022-11-27T01:18:11.383Z,5.900
2022-11-27T01:19:11.591Z,7.900
2022-11-27T01:20:12.662Z,6.5
2022-11-27T01:21:11.268Z,5.599
2022-11-27T01:22:11.492Z,6.099
2022-11-27T01:23:12.058Z,6.5
2022-11-27T01:24:11.488Z,6.199
2022-11-27T01:25:11.850Z,5.900
2022-11-27T01:26:11.068Z,5.699
2022-11-27T01:27:12.154Z,5.400
2022-11-27T01:28:11.222Z,4.800
2022-11-27T01:29:12.439Z,5.300
2022-11-27T01:30:12.045Z,6
2022-11-27T01:31:11.244Z,5.199
2022-11-27T01:33:11.683Z,4.900
2022-11-27T01:34:12.114Z,4.300
2022-11-27T01:35:12.284Z,5.199
2022-11-27T01:36:11.462Z,5.300
2022-11-27T01:37:12.018Z,6.300
2022-11-27T01:38:11.103Z,4.699
2022-11-27T01:39:12.012Z,4.900
2022-11-27T01:40:11.798Z,5.800
2022-11-27T01:41:11.733Z,5.199
2022-11-27T01:42:12.119Z,5.400
2022-11-27T01:43:11.173Z,5.099
2022-11-27T01:44:11.530Z,5.599
2022-11-27T01:45:11.605Z,5.5
2022-11-27T01:46:12.019Z,5.400
2022-11-27T01:47:12.139Z,5.300
2022-11-27T01:48:11.314Z,5.699
2022-11-27T01:49:12.266Z,5.599
2022-11-27T01:50:11.663Z,5.400
2022-11-27T01:51:11.618Z,5.699
2022-11-27T01:52:11.731Z,6
2022-11-27T01:53:12.079Z,5
2022-11-27T01:55:11.507Z,4.900
2022-11-27T01:56:11.801Z,4.5
2022-11-27T01:57:11.797Z,4.599
2022-11-27T01:58:12.123Z,4.699
2022-11-27T01:59:12.323Z,4.599
2022-11-27T02:00:12.397Z,5.400
2022-11-27T02:01:12.136Z,4.699
2022-11-27T02:02:11.524Z,4.800
2022-11-27T02:03:12.294Z,5.099
2022-11-27T02:04:11.583Z,4.699
2022-11-27T02:05:12.086Z,4.599
2022-11-27T02:06:11.344Z,4.5
2022-11-27T02:07:12.251Z,5.099
2022-11-27T02:08:11.538Z,5
2022-11-27T02:09:11.552Z,4.599
2022-11-27T02:10:11.607Z,4.800
2022-11-27T02:11:11.550Z,5
2022-11-27T02:12:11.765Z,4.400
2022-11-27T02:13:11.982Z,5.300
2022-11-27T02:14:12.167Z,5
2022-11-27T02:16:16.434Z,4.800
2022-11-27T02:17:12.121Z,5
2022-11-27T02:18:11.269Z,5.599
2022-11-27T02:19:12.048Z,5
2022-11-27T02:20:12.351Z,5.199
2022-11-27T02:21:12.056Z,4.900
2022-11-27T02:22:11.386Z,5.300
2022-11-27T02:23:11.092Z,5
2022-11-27T02:24:12.189Z,5.199
2022-11-27T02:25:11.320Z,5.300
2022-11-27T02:26:11.742Z,5.099
2022-11-27T02:27:11.767Z,5.800
2022-11-27T02:28:11.817Z,5
2022-11-27T02:29:12.029Z,4.900
2022-11-27T02:30:12.509Z,5
2022-11-27T02:31:11.931Z,4.599
2022-11-27T02:32:11.226Z,5.800
2022-11-27T02:33:12.195Z,5
2022-11-27T02:35:12.493Z,4.800
2022-11-27T02:36:11.632Z,5.199
2022-11-27T02:37:11.541Z,5
2022-11-27T02:38:11.510Z,5.099
2022-11-27T02:39:11.019Z,4.599
2022-11-27T02:40:12.228Z,4.400
2022-11-27T02:41:11.191Z,4.099
2022-11-27T02:42:11.650Z,4.199
2022-11-27T02:44:11.489Z,4.5
2022-11-27T02:45:11.367Z,4.300
2022-11-27T02:46:11.772Z,4.699
2022-11-27T02:47:11.821Z,4.300
2022-11-27T02:48:12.072Z,4.900
2022-11-27T02:49:11.565Z,4.599
2022-11-27T02:51:11.910Z,4.5
2022-11-27T02:52:12.164Z,4.599
2022-11-27T02:53:12.046Z,4.699
2022-11-27T02:54:12.039Z,4.900
2022-11-27T02:55:12.050Z,5.599
2022-11-27T02:56:12.143Z,4.599
2022-11-27T02:57:12.061Z,4.5
2022-11-27T02:58:12.172Z,4.900
2022-11-27T02:59:12.229Z,5
2022-11-27T03:00:11.735Z,5.199
2022-11-27T03:01:12.232Z,4.5
2022-11-27T03:02:11.662Z,4.800
2022-11-27T03:03:11.698Z,4.900
2022-11-27T03:04:12.018Z,4.699
2022-11-27T03:05:12.170Z,4.900
2022-11-27T03:06:12.348Z,4.800
2022-11-27T03:07:11.407Z,4.699
2022-11-27T03:08:11.430Z,4.400
2022-11-27T03:09:11.442Z,4.599
2022-11-27T03:10:12.614Z,4.199
2022-11-27T03:11:11.847Z,4
2022-11-27T03:12:11.739Z,4.599
2022-11-27T03:13:11.358Z,4.199
2022-11-27T03:14:11.166Z,5.199
2022-11-27T03:15:12.516Z,4.599
2022-11-27T03:17:11.763Z,4.5
2022-11-27T03:18:11.776Z,4.400
2022-11-27T03:22:11.598Z,4.5
2022-11-27T03:23:11.643Z,4.099
2022-11-27T03:24:11.704Z,4.400
2022-11-27T03:25:11.810Z,4.699
2022-11-27T03:26:11.664Z,4.400
2022-11-27T03:27:19.772Z,4.699
2022-11-27T03:28:11.772Z,4.199
2022-11-27T03:29:11.734Z,4.400
2022-11-27T03:30:12.400Z,4.599
2022-11-27T03:31:11.554Z,4.800
2022-11-27T03:33:11.658Z,4.900
2022-11-27T03:34:11.684Z,4.599
2022-11-27T03:35:11.569Z,4.800
2022-11-27T03:36:11.731Z,4.699
2022-11-27T03:37:11.998Z,4.199
2022-11-27T03:38:11.935Z,4.300
2022-11-27T03:39:12.002Z,4.5
2022-11-27T03:40:12.458Z,4.900
2022-11-27T03:41:12.101Z,4.699
2022-11-27T03:42:12.202Z,4.900
2022-11-27T03:43:12.349Z,5
2022-11-27T03:44:11.419Z,4.599
2022-11-27T03:45:11.695Z,4.699
2022-11-27T03:46:12.018Z,4.800
2022-11-27T03:47:12.278Z,5.099
2022-11-27T03:48:11.458Z,5.199
2022-11-27T03:49:11.421Z,4.800
2022-11-27T03:50:11.168Z,5
2022-11-27T03:51:12.046Z,4.5
2022-11-27T03:52:12.017Z,4.900
2022-11-27T03:53:11.924Z,5.400
2022-11-27T03:54:11.714Z,4.699
2022-11-27T03:56:11.762Z,4.800
2022-11-27T03:58:11.477Z,4.900
2022-11-27T03:59:12.204Z,4.699
2022-11-27T04:00:11.889Z,4.5
2022-11-27T04:01:31.431Z,4.400
2022-11-27T04:03:11.702Z,5.099
2022-11-27T04:05:12.569Z,5
2022-11-27T04:06:11.935Z,5.099
2022-11-27T04:07:12.005Z,4.5
2022-11-27T04:08:12.244Z,4.300
2022-11-27T04:09:11.346Z,4.800
2022-11-27T04:10:11.699Z,3.900
2022-11-27T04:11:11.687Z,4.300
2022-11-27T04:12:11.636Z,4.099
2022-11-27T04:13:11.397Z,4
2022-11-27T04:14:11.519Z,4.5
2022-11-27T04:15:11.658Z,4.400
2022-11-27T04:17:11.454Z,4.5
2022-11-27T04:18:11.559Z,4.099
2022-11-27T04:19:11.501Z,4.800
2022-11-27T04:20:12.021Z,4.5
2022-11-27T04:23:11.984Z,4.599
2022-11-27T04:24:12.093Z,4.199
2022-11-27T04:26:11.447Z,4.099
2022-11-27T04:27:11.603Z,4.599
2022-11-27T04:28:11.669Z,4.300
2022-11-27T04:29:11.452Z,4.400
2022-11-27T04:30:11.812Z,4.599
2022-11-27T04:31:11.966Z,4.5
2022-11-27T04:32:12.256Z,4.699
2022-11-27T04:33:12.158Z,4.400
2022-11-27T04:34:11.362Z,4.800
2022-11-27T04:35:11.455Z,4.300
2022-11-27T04:36:11.561Z,4.699
2022-11-27T04:37:11.548Z,4.400
2022-11-27T04:38:12.023Z,4.5
2022-11-27T04:39:12.119Z,4.599
2022-11-27T04:40:12.391Z,5
2022-11-27T04:41:11.043Z,4
2022-11-27T04:42:12.153Z,4.400
2022-11-27T04:43:11.738Z,4.300
2022-11-27T04:44:11.912Z,4.099
2022-11-27T04:45:11.764Z,4.300
2022-11-27T04:46:11.739Z,4.599
2022-11-27T04:47:11.613Z,4.099
2022-11-27T04:48:11.763Z,4
2022-11-27T04:49:11.474Z,4.5
2022-11-27T04:50:11.956Z,4.099
2022-11-27T04:51:11.802Z,4.900
2022-11-27T04:52:11.697Z,4.400
2022-11-27T04:53:11.666Z,4.800
2022-11-27T04:54:11.873Z,4.699
2022-11-27T04:55:12.207Z,4.800
2022-11-27T04:56:11.932Z,4.599
2022-11-27T04:57:12.156Z,4.800
2022-11-27T04:58:11.258Z,4.5
2022-11-27T04:59:11.356Z,4.599
2022-11-27T05:00:11.938Z,5.099
2022-11-27T05:01:12.194Z,4.900
2022-11-27T05:02:11.496Z,4.800
2022-11-27T05:03:10.359Z,4.599
2022-11-27T05:04:11.746Z,4.900
2022-11-27T05:05:12.079Z,4.599
2022-11-27T05:06:11.789Z,4.099
2022-11-27T05:07:11.940Z,4.900
2022-11-27T05:08:11.385Z,4.199
2022-11-27T05:09:12.411Z,4.5
2022-11-27T05:10:11.875Z,4.199
2022-11-27T05:11:11.957Z,4.300
2022-11-27T05:12:11.843Z,4.5
2022-11-27T05:14:12.076Z,4.199
2022-11-27T05:15:12.386Z,4.300
2022-11-27T05:16:11.716Z,4.099
2022-11-27T05:17:12.299Z,4
2022-11-27T05:18:11.558Z,4.199
2022-11-27T05:20:12.285Z,4.400
2022-11-27T05:21:12.416Z,4.300
2022-11-27T05:23:11.962Z,4.199
2022-11-27T05:24:12.222Z,4.099
2022-11-27T05:26:12.145Z,4.400
2022-11-27T05:27:12.086Z,4.199
2022-11-27T05:28:11.491Z,4.699
2022-11-27T05:29:11.472Z,4.599
2022-11-27T05:30:12.617Z,4.699
2022-11-27T05:31:11.690Z,4.900
2022-11-27T05:32:11.680Z,4.400
2022-11-27T05:33:12.049Z,5.400
2022-11-27T05:34:11.965Z,4.400
2022-11-27T05:35:12.197Z,4.099
2022-11-27T05:36:11.507Z,4.5
2022-11-27T05:37:15.112Z,4.400
2022-11-27T05:38:12.203Z,4.800
2022-11-27T05:39:11.253Z,4.5
2022-11-27T05:40:11.827Z,4.599
2022-11-27T05:41:11.574Z,4.099
2022-11-27T05:42:11.826Z,4.400
2022-11-27T05:43:11.783Z,4.599
2022-11-27T05:45:12.459Z,4.699
2022-11-27T05:47:12.288Z,4.900
2022-11-27T05:48:11.708Z,4.699
2022-11-27T05:49:11.705Z,4.800
2022-11-27T05:50:12.088Z,4.300
2022-11-27T05:52:11.645Z,4.5
2022-11-27T05:53:11.381Z,4.300
2022-11-27T05:54:11.648Z,4.699
2022-11-27T05:55:11.674Z,4.599
2022-11-27T05:56:11.715Z,4.300
2022-11-27T05:57:11.582Z,4.599
2022-11-27T05:58:11.607Z,4
2022-11-27T06:00:12.389Z,4.099
2022-11-27T06:01:11.596Z,3.700
2022-11-27T06:02:16.465Z,3.799
2022-11-27T06:03:12.000Z,4
2022-11-27T06:04:11.365Z,3.400
2022-11-27T06:05:11.599Z,3.900
2022-11-27T06:06:12.010Z,3.700
2022-11-27T06:08:11.378Z,4
2022-11-27T06:09:13.064Z,4.099
2022-11-27T06:10:11.557Z,4.5
2022-11-27T06:11:11.907Z,3.700
2022-11-27T06:12:11.794Z,3.799
2022-11-27T06:13:11.300Z,3.599
2022-11-27T06:14:11.529Z,3.700
2022-11-27T06:16:12.182Z,4
2022-11-27T06:17:12.049Z,4.800
2022-11-27T06:18:12.014Z,4.400
2022-11-27T06:19:12.002Z,3.900
2022-11-27T06:20:12.392Z,4.900
2022-11-27T06:21:11.558Z,4.800
2022-11-27T06:22:11.670Z,4.699
2022-11-27T06:23:11.709Z,4.800
2022-11-27T06:24:11.677Z,4.599
2022-11-27T06:25:11.483Z,4.699
2022-11-27T06:26:11.911Z,4.599
2022-11-27T06:27:11.518Z,4.800
2022-11-27T06:28:11.737Z,4.099
2022-11-27T06:29:11.722Z,4
2022-11-27T06:30:12.188Z,4.300
2022-11-27T06:31:17.256Z,4
2022-11-27T06:32:12.383Z,4.099
2022-11-27T06:34:11.742Z,4.300
2022-11-27T06:35:11.613Z,4.099
2022-11-27T06:36:11.438Z,5.099
2022-11-27T06:37:13.399Z,4.300
2022-11-27T06:38:11.778Z,4.400
2022-11-27T06:39:11.791Z,4.599
2022-11-27T06:42:11.759Z,4.099
2022-11-27T06:43:11.629Z,4.699
2022-11-27T06:44:11.765Z,3.900
2022-11-27T06:45:12.207Z,4.099
2022-11-27T06:46:12.027Z,4
2022-11-27T06:48:11.767Z,4.099
2022-11-27T06:49:11.667Z,4.400
2022-11-27T06:50:12.108Z,3.799
2022-11-27T06:52:12.143Z,3.700
2022-11-27T06:53:12.190Z,3.900
2022-11-27T06:54:12.255Z,3.799
2022-11-27T06:55:12.597Z,3.900
2022-11-27T06:56:11.633Z,3.700
2022-11-27T06:57:11.468Z,3.799
2022-11-27T06:59:11.827Z,3.900
2022-11-27T07:00:13.363Z,4
2022-11-27T07:01:11.911Z,3.5
2022-11-27T07:02:12.520Z,4.5
2022-11-27T07:03:11.739Z,3.700
2022-11-27T07:04:11.907Z,3.5
2022-11-27T07:05:12.240Z,4.099
2022-11-27T07:07:12.517Z,3.900
2022-11-27T07:08:11.627Z,4.199
2022-11-27T07:09:12.122Z,3.5
2022-11-27T07:10:12.349Z,4.400
2022-11-27T07:11:11.501Z,3.900
2022-11-27T07:12:11.792Z,4
2022-11-27T07:13:11.944Z,4.099
2022-11-27T07:14:12.302Z,3.799
2022-11-27T07:17:12.301Z,3.599
2022-11-27T07:19:11.661Z,3.5
2022-11-27T07:20:11.809Z,3.700
2022-11-27T07:21:11.899Z,3.799
2022-11-27T07:22:11.972Z,3.700
2022-11-27T07:23:12.058Z,4
2022-11-27T07:24:12.322Z,3.900
2022-11-27T07:25:12.340Z,3.799
2022-11-27T07:26:11.839Z,3.900
2022-11-27T07:27:11.804Z,3.400
2022-11-27T07:28:15.984Z,3.5
2022-11-27T07:29:11.965Z,3.799
2022-11-27T07:30:12.531Z,3.5
2022-11-27T07:31:11.549Z,3.400
2022-11-27T07:32:11.897Z,3.099
2022-11-27T07:33:12.044Z,3
2022-11-27T07:34:17.082Z,3.099
2022-11-27T07:36:11.280Z,3
2022-11-27T07:38:12.131Z,3.299
2022-11-27T07:39:11.538Z,3.099
2022-11-27T07:40:13.860Z,2.799
2022-11-27T07:41:12.373Z,3
2022-11-27T07:42:36.880Z,2.799
2022-11-27T07:43:12.172Z,2.900
2022-11-27T07:44:11.925Z,3
2022-11-27T07:45:12.103Z,3.099
2022-11-27T07:46:12.231Z,2.700
2022-11-27T07:47:11.928Z,3.099
2022-11-27T07:48:12.376Z,3.299
2022-11-27T07:49:12.552Z,3
2022-11-27T07:50:11.863Z,2.599
2022-11-27T07:51:12.326Z,3
2022-11-27T07:53:11.723Z,3.099
2022-11-27T07:54:11.934Z,2.900
2022-11-27T07:56:11.491Z,2.700
2022-11-27T07:57:11.882Z,2.599
2022-11-27T07:58:12.252Z,2.5
2022-11-27T08:00:12.254Z,2.400
2022-11-27T08:01:11.998Z,2.5
2022-11-27T08:02:12.496Z,2.799
2022-11-27T08:03:11.479Z,2.700
2022-11-27T08:04:11.854Z,2.5
2022-11-27T08:07:11.501Z,2.599
2022-11-27T08:08:11.741Z,2.5
2022-11-27T08:09:11.752Z,2.799
2022-11-27T08:11:12.238Z,2.599
2022-11-27T08:12:11.345Z,2.200
2022-11-27T08:13:11.990Z,2.5
2022-11-27T08:14:12.258Z,2.400
2022-11-27T08:15:12.858Z,2.599
2022-11-27T08:16:12.164Z,2.5
2022-11-27T08:17:12.248Z,2.700
2022-11-27T08:18:11.254Z,2.400
2022-11-27T08:19:12.183Z,2.599
2022-11-27T08:20:11.477Z,2.299
2022-11-27T08:21:11.468Z,2.400
2022-11-27T08:23:12.135Z,2.599
2022-11-27T08:24:11.859Z,2.900
2022-11-27T08:25:11.583Z,2.5
2022-11-27T08:26:11.832Z,2.599
2022-11-27T08:27:12.018Z,2.299
2022-11-27T08:28:10.899Z,2.400
2022-11-27T08:29:11.518Z,2.799
2022-11-27T08:30:12.095Z,2.5
2022-11-27T08:31:12.026Z,2.400
2022-11-27T08:32:12.460Z,2.700
2022-11-27T08:34:11.712Z,2.599
2022-11-27T08:35:12.180Z,2.200
2022-11-27T08:36:17.673Z,2.299
2022-11-27T08:37:11.531Z,2.599
2022-11-27T08:38:11.764Z,2.200
2022-11-27T08:39:11.845Z,2
2022-11-27T08:40:12.101Z,2.099
2022-11-27T08:41:12.162Z,2.299
2022-11-27T08:42:12.013Z,2.200
2022-11-27T08:43:12.277Z,2.400
2022-11-27T08:44:11.711Z,2.299
2022-11-27T08:45:31.313Z,2.400
2022-11-27T08:46:11.703Z,2.200
2022-11-27T08:47:12.029Z,2.400
2022-11-27T08:48:12.434Z,2.599
2022-11-27T08:49:11.844Z,2.099
2022-11-27T08:50:11.735Z,2.200
2022-11-27T08:51:12.223Z,2
2022-11-27T08:53:11.696Z,2.099
2022-11-27T08:54:12.080Z,2.200
2022-11-27T08:55:34.454Z,2.099
2022-11-27T08:57:11.482Z,2.200
2022-11-27T08:58:11.771Z,2.299
2022-11-27T08:59:12.248Z,2.400
2022-11-27T09:00:12.191Z,2.200
2022-11-27T09:01:11.687Z,2.5
2022-11-27T09:02:12.174Z,2.200
2022-11-27T09:03:11.996Z,2.299
2022-11-27T09:04:12.251Z,2.099
2022-11-27T09:05:12.231Z,2.299
2022-11-27T09:06:11.294Z,2.099
2022-11-27T09:07:11.499Z,2.299
2022-11-27T09:08:11.596Z,2.200
2022-11-27T09:09:12.214Z,2.400
2022-11-27T09:10:11.815Z,2.700
2022-11-27T09:11:12.434Z,2.299
2022-11-27T09:13:11.978Z,2.5
2022-11-27T09:15:11.065Z,2.400
2022-11-27T09:16:11.565Z,2.200
2022-11-27T09:17:12.289Z,2.299
2022-11-27T09:18:11.698Z,2.400
2022-11-27T09:19:11.997Z,2.299
2022-11-27T09:20:12.601Z,2.5
2022-11-27T09:21:11.670Z,2.099
2022-11-27T09:22:11.889Z,2.400
2022-11-27T09:23:14.468Z,2.5
2022-11-27T09:24:11.964Z,2.599
2022-11-27T09:25:12.494Z,2.400
2022-11-27T09:26:11.754Z,3.299
2022-11-27T09:27:12.162Z,2.599
2022-11-27T09:28:11.479Z,2.900
2022-11-27T09:30:11.681Z,3.299
2022-11-27T09:33:11.586Z,2.900
2022-11-27T09:34:11.674Z,2.5
2022-11-27T09:35:12.135Z,3.299
2022-11-27T09:36:11.765Z,3.400
2022-11-27T09:37:11.888Z,3.099
2022-11-27T09:38:12.140Z,3.200
2022-11-27T09:39:11.445Z,3.700
2022-11-27T09:40:11.915Z,3.799
2022-11-27T09:41:12.343Z,3.700
2022-11-27T09:42:11.507Z,4
2022-11-27T09:43:11.713Z,3.700
2022-11-27T09:44:12.077Z,3.900
2022-11-27T09:46:11.447Z,3.099
2022-11-27T09:47:11.383Z,3.400
2022-11-27T09:48:11.604Z,2.799
2022-11-27T09:50:12.123Z,2.700
2022-11-27T09:51:12.224Z,2.5
2022-11-27T09:53:11.748Z,2.599
2022-11-27T09:54:12.172Z,2.700
2022-11-27T09:55:12.642Z,2.5
2022-11-27T09:56:12.067Z,2.700
2022-11-27T09:57:11.929Z,2.599
2022-11-27T09:58:12.156Z,2.5
2022-11-27T10:00:12.567Z,2.599
2022-11-27T10:01:12.239Z,2.5
2022-11-27T10:02:11.728Z,2.299
2022-11-27T10:04:11.971Z,2.700
2022-11-27T10:05:14.264Z,3
2022-11-27T10:06:11.943Z,2.599
2022-11-27T10:07:12.272Z,2.5
2022-11-27T10:08:11.862Z,2.400
2022-11-27T10:09:12.226Z,2.200
2022-11-27T10:11:12.225Z,2.099
2022-11-27T10:13:11.710Z,2
2022-11-27T10:14:12.226Z,2.200
2022-11-27T10:15:12.586Z,2.099
2022-11-27T10:17:12.165Z,2.200
2022-11-27T10:19:12.238Z,2.299
2022-11-27T10:20:12.677Z,2.200
2022-11-27T10:21:12.272Z,2.299
2022-11-27T10:23:11.677Z,2.400
2022-11-27T10:24:12.045Z,2.299
2022-11-27T10:25:12.398Z,2.400
2022-11-27T10:26:11.925Z,2.5
2022-11-27T10:27:12.558Z,2.400
2022-11-27T10:28:11.933Z,2.599
2022-11-27T10:29:12.379Z,2.5
2022-11-27T10:30:12.329Z,2.299
2022-11-27T10:31:11.730Z,2.400
2022-11-27T10:32:32.821Z,2.299
2022-11-27T10:33:11.859Z,2.099
2022-11-27T10:35:11.663Z,1.799
2022-11-27T10:36:11.831Z,2
2022-11-27T10:37:12.440Z,1.899
2022-11-27T10:38:17.054Z,2
2022-11-27T10:40:12.535Z,1.899
2022-11-27T10:41:34.320Z,1.799
2022-11-27T10:42:12.140Z,1.899
2022-11-27T10:43:11.561Z,2.099
2022-11-27T10:44:11.709Z,1.799
2022-11-27T10:45:12.029Z,1.600
2022-11-27T10:46:12.238Z,1.899
2022-11-27T10:47:12.049Z,1.700
2022-11-27T10:48:12.392Z,1.600
2022-11-27T10:49:12.659Z,1.899
2022-11-27T10:50:11.958Z,1.799
2022-11-27T10:51:12.109Z,1.899
2022-11-27T10:52:12.251Z,2
2022-11-27T10:53:11.454Z,1.799
2022-11-27T10:54:12.029Z,1.700
2022-11-27T10:55:12.456Z,1.600
2022-11-27T10:56:11.550Z,1.899
2022-11-27T10:57:11.686Z,2.099
2022-11-27T10:58:11.964Z,1.899
2022-11-27T10:59:12.281Z,2.200
2022-11-27T11:01:12.139Z,1.899
2022-11-27T11:02:11.839Z,2.299
2022-11-27T11:03:12.121Z,2.200
2022-11-27T11:04:24.717Z,2
2022-11-27T11:05:34.577Z,1.899
2022-11-27T11:06:31.060Z,2
2022-11-27T11:07:11.703Z,2.099
2022-11-27T11:08:12.088Z,2.299
2022-11-27T11:10:31.601Z,2.099
2022-11-27T11:11:11.885Z,1.899
2022-11-27T11:13:11.697Z,2
2022-11-27T11:14:11.613Z,1.799
2022-11-27T11:15:12.295Z,2
2022-11-27T11:16:14.727Z,1.700
2022-11-27T11:17:11.913Z,1.799
2022-11-27T11:18:11.384Z,1.700
2022-11-27T11:20:12.532Z,1.799
2022-11-27T11:21:11.893Z,1.899
2022-11-27T11:23:11.870Z,1.700
2022-11-27T11:26:11.597Z,1.600
2022-11-27T11:27:11.819Z,1.700
2022-11-27T11:29:11.418Z,1.899
2022-11-27T11:30:12.319Z,2
2022-11-27T11:31:11.797Z,1.700
2022-11-27T11:32:12.443Z,1.799
2022-11-27T11:34:11.841Z,2.099
2022-11-27T11:35:11.841Z,1.700
2022-11-27T11:36:11.763Z,1.600
2022-11-27T11:37:11.991Z,1.700
2022-11-27T11:38:11.663Z,1.600
2022-11-27T11:41:11.949Z,1.299
2022-11-27T11:42:12.109Z,1.600
2022-11-27T11:44:11.520Z,1.5
2022-11-27T11:45:11.632Z,1.399
2022-11-27T11:48:11.897Z,1.600
2022-11-27T11:49:11.934Z,1.899
2022-11-27T11:50:12.243Z,2.299
2022-11-27T11:51:11.731Z,3.5
2022-11-27T11:52:12.143Z,3
2022-11-27T11:53:12.237Z,2.900
2022-11-27T11:54:12.292Z,2.299
2022-11-27T11:55:12.734Z,1.700
2022-11-27T11:56:11.844Z,2
2022-11-27T11:57:12.103Z,1.899
2022-11-27T11:58:12.206Z,2
2022-11-27T11:59:12.499Z,2.200
2022-11-27T12:00:11.964Z,1.700
2022-11-27T12:01:26.324Z,1.600
2022-11-27T12:02:12.451Z,2.299
2022-11-27T12:03:11.830Z,1.700
2022-11-27T12:04:11.776Z,2.099
2022-11-27T12:06:11.642Z,1.899
2022-11-27T12:07:11.766Z,1.5
2022-11-27T12:08:12.319Z,1.600
2022-11-27T12:09:11.696Z,1.799
2022-11-27T12:10:12.086Z,1.5
2022-11-27T12:12:11.765Z,1.600
2022-11-27T12:13:12.236Z,1.799
2022-11-27T12:14:11.333Z,1.5
2022-11-27T12:15:12.623Z,1.600
2022-11-27T12:18:12.336Z,1.700
2022-11-27T12:19:11.601Z,1.799
2022-11-27T12:20:11.776Z,1.600
2022-11-27T12:23:11.204Z,1.899
2022-11-27T12:24:11.420Z,1.600
2022-11-27T12:25:11.886Z,1.899
2022-11-27T12:26:11.303Z,1.799
2022-11-27T12:27:11.633Z,1.600
2022-11-27T12:28:11.621Z,1.899
2022-11-27T12:29:11.531Z,1.700
2022-11-27T12:31:11.995Z,1.5
2022-11-27T12:32:12.100Z,1.700
2022-11-27T12:34:12.188Z,1.600
2022-11-27T12:35:12.349Z,1.899
2022-11-27T12:36:11.126Z,1.799
2022-11-27T12:37:14.159Z,1.700
2022-11-27T12:38:11.668Z,1.5
2022-11-27T12:39:11.677Z,1.700
2022-11-27T12:40:12.204Z,1.5
2022-11-27T12:41:12.403Z,1.799
2022-11-27T12:42:11.589Z,1.899
2022-11-27T12:43:11.900Z,1.399
2022-11-27T12:44:11.940Z,1.5
2022-11-27T12:45:12.450Z,1.600
2022-11-27T12:46:11.882Z,1.799
2022-11-27T12:47:12.611Z,1.600
2022-11-27T12:48:11.561Z,1.700
2022-11-27T12:49:11.706Z,2.299
2022-11-27T12:50:12.474Z,3.799
2022-11-27T12:51:11.637Z,2.700
2022-11-27T12:52:12.026Z,2.599
2022-11-27T12:53:12.113Z,2.700
2022-11-27T12:54:11.378Z,3
2022-11-27T12:55:11.863Z,2.799
2022-11-27T12:56:11.426Z,2.200
2022-11-27T12:57:12.242Z,2.299
2022-11-27T12:58:11.825Z,2.700
2022-11-27T12:59:11.813Z,2.099
2022-11-27T13:00:12.806Z,3.400
2022-11-27T13:01:12.671Z,3.599
2022-11-27T13:02:12.101Z,2.900
2022-11-27T13:03:11.970Z,2.599
2022-11-27T13:05:11.840Z,2.5
2022-11-27T13:07:11.529Z,3
2022-11-27T13:08:11.960Z,2.099
2022-11-27T13:09:12.251Z,2.400
2022-11-27T13:10:11.642Z,4.400
2022-11-27T13:11:11.454Z,2.900
2022-11-27T13:12:11.716Z,2.299
2022-11-27T13:13:12.237Z,2.400
2022-11-27T13:16:11.637Z,2.200
2022-11-27T13:17:25.984Z,2
2022-11-27T13:18:12.183Z,2.099
2022-11-27T13:19:12.326Z,1.600
2022-11-27T13:20:11.997Z,1.700
2022-11-27T13:21:11.602Z,1.799
2022-11-27T13:22:11.806Z,2.299
2022-11-27T13:23:12.066Z,2.400
2022-11-27T13:24:11.288Z,2.200
2022-11-27T13:25:11.829Z,2.099
2022-11-27T13:26:11.769Z,1.899
2022-11-27T13:27:11.412Z,2.200
2022-11-27T13:28:12.251Z,2.099
2022-11-27T13:30:12.338Z,1.899
2022-11-27T13:32:12.168Z,1.799
2022-11-27T13:33:12.335Z,2.5
2022-11-27T13:34:11.661Z,1.899
2022-11-27T13:35:12.565Z,1.799
2022-11-27T13:37:12.188Z,1.899
2022-11-27T13:38:11.709Z,2
2022-11-27T13:39:12.033Z,2.200
2022-11-27T13:40:12.473Z,2.099
2022-11-27T13:42:12.209Z,1.799
2022-11-27T13:43:11.534Z,2.5
2022-11-27T13:45:12.672Z,2.200
2022-11-27T13:49:11.594Z,2
2022-11-27T13:50:12.084Z,1.899
2022-11-27T13:51:11.616Z,2
2022-11-27T13:52:12.136Z,2.200
2022-11-27T13:54:11.935Z,2.099
2022-11-27T13:55:11.986Z,1.799
2022-11-27T13:56:12.276Z,2.099
2022-11-27T13:57:11.851Z,1.899
2022-11-27T13:58:12.190Z,2.099
2022-11-27T13:59:12.367Z,2
2022-11-27T14:00:12.595Z,2.099
2022-11-27T14:01:12.004Z,2
2022-11-27T14:02:11.694Z,2.200
2022-11-27T14:03:11.581Z,1.899
2022-11-27T14:05:12.498Z,2
2022-11-27T14:06:12.068Z,2.299
2022-11-27T14:07:12.345Z,2.200
2022-11-27T14:08:11.765Z,2.099
2022-11-27T14:09:11.818Z,1.899
2022-11-27T14:10:12.263Z,2
2022-11-27T14:13:12.505Z,1.600
2022-11-27T14:14:12.173Z,1.799
2022-11-27T14:15:11.816Z,2.099
2022-11-27T14:16:12.687Z,2.299
2022-11-27T14:17:12.156Z,1.899
2022-11-27T14:18:11.659Z,1.799
2022-11-27T14:19:11.826Z,2.200
2022-11-27T14:20:12.575Z,2.299
2022-11-27T14:22:12.153Z,3.400
2022-11-27T14:24:11.783Z,2.900
2022-11-27T14:25:12.481Z,4.099
2022-11-27T14:26:14.959Z,2.799
2022-11-27T14:27:11.901Z,3.200
2022-11-27T14:29:11.832Z,2.799
2022-11-27T14:31:12.270Z,2.5
2022-11-27T14:32:11.642Z,4.300
2022-11-27T14:33:11.560Z,3.5
2022-11-27T14:34:18.462Z,7.900
2022-11-27T14:35:12.189Z,9.5
2022-11-27T14:36:11.687Z,7.199
2022-11-27T14:38:11.652Z,8.199
2022-11-27T14:39:11.909Z,11.60
2022-11-27T14:40:12.371Z,6.699
2022-11-27T14:41:11.729Z,7
2022-11-27T14:42:11.835Z,8.899
2022-11-27T14:43:12.042Z,10.19
2022-11-27T14:44:11.833Z,14.39
2022-11-27T14:45:12.187Z,10.10
2022-11-27T14:46:11.895Z,5.300
2022-11-27T14:47:12.069Z,4.199
2022-11-27T14:49:11.374Z,3.700
2022-11-27T14:50:11.813Z,3
2022-11-27T14:51:12.173Z,2.599
2022-11-27T14:52:11.592Z,2.400
2022-11-27T14:53:11.894Z,3.099
2022-11-27T14:54:12.570Z,3
2022-11-27T14:55:11.737Z,3.799
2022-11-27T14:56:12.092Z,3.5
2022-11-27T14:57:11.711Z,3.400
2022-11-27T14:58:11.728Z,3
2022-11-27T14:59:11.983Z,3.099
2022-11-27T15:00:13.235Z,3.200
2022-11-27T15:01:11.986Z,2.900
2022-11-27T15:02:12.730Z,2.700
2022-11-27T15:05:12.201Z,3
2022-11-27T15:08:12.189Z,2.599